Time;durP1;ratioP1;P1;durP2;ratioP2;P2;SDS_P1;SDS_P2;PMS_P1;PMS_P2;Temp;Humidity;BMP_temperature;BMP_pressure;BME280_temperature;BME280_humidity;BME280_pressure;Samples;Min_cycle;Max_cycle;Signal;HPM_P1;HPM_P2
2023/01/03 00:02:06;;;;;;;7.43;4.60;;;8.50;99.90;;;;;;5071638;28;20294;-31
2023/01/03 00:04:35;;;;;;;6.90;4.83;;;8.50;99.90;;;;;;5065459;28;20218;-31
2023/01/03 00:07:02;;;;;;;7.13;5.10;;;8.50;99.90;;;;;;5064435;28;20623;-31
2023/01/03 00:09:30;;;;;;;11.10;5.33;;;8.50;99.90;;;;;;5063335;28;20211;-32
2023/01/03 00:14:43;;;;;;;7.53;5.17;;;8.50;99.90;;;;;;5064654;28;20211;-31
2023/01/03 00:17:13;;;;;;;7.37;4.87;;;8.50;99.90;;;;;;5065782;28;20232;-31
2023/01/03 00:19:43;;;;;;;8.37;5.13;;;8.50;99.90;;;;;;5063855;28;20208;-32
2023/01/03 00:22:16;;;;;;;8.20;5.17;;;8.50;99.90;;;;;;5062626;28;20219;-31
2023/01/03 00:24:45;;;;;;;6.93;4.93;;;8.50;99.90;;;;;;5062633;28;20196;-31
2023/01/03 00:27:15;;;;;;;7.03;5.00;;;8.50;99.90;;;;;;5064142;28;20298;-31
2023/01/03 00:29:42;;;;;;;6.87;5.10;;;8.50;99.90;;;;;;5064483;28;20215;-31
2023/01/03 00:32:10;;;;;;;6.00;4.50;;;8.40;99.90;;;;;;5065179;28;20587;-31
2023/01/03 00:34:37;;;;;;;8.00;5.13;;;8.40;99.90;;;;;;5061537;28;20211;-31
2023/01/03 00:37:04;;;;;;;8.83;5.43;;;8.40;99.90;;;;;;5063556;28;20720;-31
2023/01/03 00:39:37;;;;;;;7.73;5.27;;;8.40;99.90;;;;;;5063857;28;20212;-31
2023/01/03 00:42:05;;;;;;;8.03;5.30;;;8.30;99.90;;;;;;5060791;28;20574;-32
2023/01/03 00:44:35;;;;;;;8.37;4.70;;;8.30;99.90;;;;;;5061919;28;20203;-32
2023/01/03 00:47:05;;;;;;;6.50;4.80;;;8.30;99.90;;;;;;5062703;28;20207;-31
2023/01/03 00:49:35;;;;;;;8.07;5.10;;;8.30;99.90;;;;;;5063392;28;20204;-31
2023/01/03 00:52:04;;;;;;;8.60;5.40;;;8.30;99.90;;;;;;5071531;28;20326;-31
2023/01/03 00:54:31;;;;;;;7.00;5.20;;;8.20;99.90;;;;;;5063471;28;20246;-32
2023/01/03 00:56:59;;;;;;;9.93;5.57;;;8.20;99.90;;;;;;5061153;28;20622;-31
2023/01/03 00:59:26;;;;;;;6.17;5.07;;;8.20;99.90;;;;;;5060893;28;20562;-31
2023/01/03 01:01:55;;;;;;;8.10;5.13;;;8.20;99.90;;;;;;5062374;28;20593;-32
2023/01/03 01:04:29;;;;;;;6.67;5.47;;;8.20;99.90;;;;;;5062126;28;20203;-31
2023/01/03 01:06:59;;;;;;;7.43;5.60;;;8.20;99.90;;;;;;5064005;28;20701;-31
2023/01/03 01:09:33;;;;;;;7.40;5.70;;;8.10;99.90;;;;;;5063172;28;20257;-31
2023/01/03 01:12:00;;;;;;;8.53;6.13;;;8.10;99.90;;;;;;5063017;28;20196;-31
2023/01/03 01:14:32;;;;;;;8.47;5.33;;;8.10;99.90;;;;;;5048115;28;20242;-31
2023/01/03 01:17:02;;;;;;;8.27;5.87;;;8.10;99.90;;;;;;5063912;28;20737;-32
2023/01/03 01:19:40;;;;;;;7.87;5.70;;;8.00;99.90;;;;;;5064063;28;20295;-32
2023/01/03 01:22:09;;;;;;;10.47;6.00;;;8.00;99.90;;;;;;5063538;28;20211;-31
2023/01/03 01:24:39;;;;;;;6.77;5.37;;;8.00;99.90;;;;;;5054876;28;20219;-31
2023/01/03 01:27:09;;;;;;;8.70;5.90;;;8.00;99.90;;;;;;5063605;28;20199;-32
2023/01/03 01:29:39;;;;;;;7.93;5.50;;;7.90;99.90;;;;;;5061091;28;20223;-31
2023/01/03 01:32:08;;;;;;;10.73;5.73;;;7.90;99.90;;;;;;5068457;28;20303;-31
2023/01/03 01:34:35;;;;;;;7.90;5.77;;;7.80;99.90;;;;;;5070273;28;20681;-32
2023/01/03 01:37:03;;;;;;;9.17;5.80;;;7.80;99.90;;;;;;5079687;28;20974;-32
2023/01/03 01:39:33;;;;;;;10.50;5.63;;;7.80;99.90;;;;;;5062483;28;20218;-31
2023/01/03 01:45:02;;;;;;;8.20;6.10;;;7.80;99.90;;;;;;5081135;28;20644;-32
2023/01/03 01:47:50;;;;;;;9.47;6.00;;;7.70;99.90;;;;;;5078923;28;20677;-32
2023/01/03 01:50:30;;;;;;;7.43;5.93;;;7.70;99.90;;;;;;5080499;28;20727;-32
2023/01/03 01:53:11;;;;;;;6.87;5.47;;;7.60;99.90;;;;;;5064095;28;20231;-31
2023/01/03 01:55:47;;;;;;;8.33;6.20;;;7.60;99.90;;;;;;5062994;28;20299;-32
2023/01/03 01:58:15;;;;;;;10.47;6.00;;;7.60;99.90;;;;;;5061888;28;20256;-31
2023/01/03 02:00:47;;;;;;;11.87;5.80;;;7.50;99.90;;;;;;5058016;28;20246;-32
2023/01/03 02:03:14;;;;;;;8.00;5.73;;;7.50;99.90;;;;;;5063972;28;20207;-31
2023/01/03 02:05:56;;;;;;;10.43;6.27;;;7.50;99.90;;;;;;5067374;28;20225;-32
2023/01/03 02:08:24;;;;;;;8.07;5.53;;;7.50;99.90;;;;;;5068027;28;20211;-32
2023/01/03 02:11:20;;;;;;;6.90;5.90;;;7.50;99.90;;;;;;5072008;28;20253;-31
2023/01/03 02:14:04;;;;;;;7.73;5.83;;;7.50;99.90;;;;;;5056457;28;20219;-31
2023/01/03 02:16:50;;;;;;;9.00;5.83;;;7.40;99.90;;;;;;5068781;28;20248;-32
2023/01/03 02:19:36;;;;;;;7.67;5.67;;;7.40;99.90;;;;;;5063472;28;20257;-32
2023/01/03 02:22:14;;;;;;;7.33;6.10;;;7.40;99.90;;;;;;5057934;28;20208;-32
2023/01/03 02:25:20;;;;;;;8.50;6.17;;;7.40;99.90;;;;;;5070149;28;20210;-31
2023/01/03 02:28:01;;;;;;;8.80;5.40;;;7.40;99.90;;;;;;5056700;28;20287;-32
2023/01/03 02:30:34;;;;;;;8.30;5.33;;;7.40;99.90;;;;;;5080927;28;20207;-32
2023/01/03 02:33:44;;;;;;;10.33;6.20;;;7.40;99.90;;;;;;5065604;28;20246;-31
2023/01/03 02:36:55;;;;;;;9.20;5.70;;;7.30;99.90;;;;;;5093910;28;20672;-31
2023/01/03 02:39:47;;;;;;;8.80;5.80;;;7.30;99.90;;;;;;5076487;28;20290;-32
2023/01/03 02:45:14;;;;;;;8.67;6.03;;;7.30;99.90;;;;;;5076698;28;20260;-31
2023/01/03 02:48:00;;;;;;;6.10;5.50;;;7.20;99.90;;;;;;5067289;28;20230;-31
2023/01/03 02:50:33;;;;;;;7.40;5.40;;;7.20;99.90;;;;;;5067737;28;20716;-32
2023/01/03 02:53:06;;;;;;;8.83;5.53;;;7.20;99.90;;;;;;5064610;28;20250;-32
2023/01/03 02:55:38;;;;;;;7.57;5.10;;;7.20;99.90;;;;;;5073412;28;20283;-31
2023/01/03 02:58:11;;;;;;;7.67;5.50;;;7.20;99.90;;;;;;5064188;28;20218;-31
2023/01/03 03:00:44;;;;;;;10.40;6.30;;;7.20;99.90;;;;;;5060982;28;20290;-32
2023/01/03 03:03:15;;;;;;;7.97;5.30;;;7.20;99.90;;;;;;5065237;28;20208;-31
2023/01/03 03:06:16;;;;;;;7.03;5.13;;;7.20;99.90;;;;;;5066389;28;20222;-32
2023/01/03 03:08:45;;;;;;;9.97;5.60;;;7.10;99.90;;;;;;5042630;28;20212;-32
2023/01/03 03:14:21;;;;;;;7.50;5.23;;;7.10;99.90;;;;;;5063484;28;20199;-31
2023/01/03 03:16:54;;;;;;;9.27;5.40;;;7.10;99.90;;;;;;5065950;28;20208;-31
2023/01/03 03:25:50;;;;;;;9.87;5.23;;;7.10;99.90;;;;;;5065297;28;20578;-32
2023/01/03 03:28:34;;;;;;;7.03;5.60;;;7.00;99.90;;;;;;5065576;28;20228;-31
2023/01/03 03:31:15;;;;;;;8.17;5.53;;;7.00;99.90;;;;;;5059659;28;20221;-31
2023/01/03 03:34:11;;;;;;;9.93;5.47;;;7.00;99.90;;;;;;5070249;28;20621;-31
2023/01/03 03:36:54;;;;;;;8.20;5.63;;;7.00;99.90;;;;;;5070770;28;20584;-31
2023/01/03 03:45:38;;;;;;;9.90;6.10;;;6.90;99.90;;;;;;5068666;28;20226;-31
2023/01/03 03:48:11;;;;;;;8.63;5.30;;;6.90;99.90;;;;;;5077714;28;20234;-31
2023/01/03 03:50:46;;;;;;;8.77;5.73;;;6.90;99.90;;;;;;5080562;28;20215;-31
2023/01/03 03:53:22;;;;;;;7.37;4.97;;;6.90;99.90;;;;;;5053503;28;20395;-31
2023/01/03 03:55:58;;;;;;;6.00;4.70;;;7.00;99.90;;;;;;5063558;28;21739;-31
2023/01/03 03:58:40;;;;;;;5.93;4.77;;;7.00;99.90;;;;;;5063651;28;20227;-31
2023/01/03 04:01:12;;;;;;;6.37;5.17;;;7.00;99.90;;;;;;5067645;28;20265;-31
2023/01/03 04:03:44;;;;;;;9.13;5.20;;;7.10;99.90;;;;;;5071884;28;20268;-32
2023/01/03 04:06:34;;;;;;;7.07;5.13;;;7.10;99.90;;;;;;5072753;28;20276;-31
2023/01/03 04:09:03;;;;;;;7.30;5.20;;;7.10;99.90;;;;;;5073589;28;20214;-31
2023/01/03 04:11:30;;;;;;;10.47;5.17;;;7.10;99.90;;;;;;5066421;28;20635;-31
2023/01/03 04:13:58;;;;;;;6.73;4.93;;;7.20;99.90;;;;;;5073407;28;20222;-31
2023/01/03 04:16:25;;;;;;;5.93;4.60;;;7.20;99.90;;;;;;5080411;28;20302;-31
2023/01/03 04:18:52;;;;;;;8.40;4.90;;;7.20;99.90;;;;;;5062122;28;20277;-31
2023/01/03 04:21:19;;;;;;;8.73;5.33;;;7.20;99.90;;;;;;5079826;28;20288;-31
2023/01/03 04:23:49;;;;;;;8.00;4.67;;;7.30;99.90;;;;;;5081286;28;20693;-31
2023/01/03 04:26:17;;;;;;;5.83;4.80;;;7.30;99.90;;;;;;5082885;28;20210;-31
2023/01/03 04:28:46;;;;;;;6.50;4.40;;;7.30;99.90;;;;;;5075751;28;20276;-31
2023/01/03 04:31:20;;;;;;;7.97;4.33;;;7.40;99.90;;;;;;5066720;28;20208;-31
2023/01/03 04:33:49;;;;;;;6.60;4.77;;;7.40;99.90;;;;;;5067512;28;20200;-32
2023/01/03 04:36:19;;;;;;;5.80;4.30;;;7.40;99.90;;;;;;5075538;28;20731;-31
2023/01/03 04:38:46;;;;;;;7.07;4.10;;;7.40;99.90;;;;;;5078566;28;20995;-31
2023/01/03 04:41:16;;;;;;;6.97;3.90;;;7.40;99.90;;;;;;5075173;28;20207;-31
2023/01/03 04:44:02;;;;;;;5.63;4.20;;;7.50;99.90;;;;;;5072718;28;20214;-32
2023/01/03 04:46:38;;;;;;;6.67;4.17;;;7.50;99.90;;;;;;5064201;28;20581;-31
2023/01/03 04:49:08;;;;;;;6.73;3.90;;;7.50;99.90;;;;;;5074666;28;20680;-31
2023/01/03 04:51:36;;;;;;;9.77;4.57;;;7.60;99.90;;;;;;5069889;28;20234;-31
2023/01/03 04:54:05;;;;;;;7.40;4.13;;;7.60;99.90;;;;;;5060644;28;20215;-31
2023/01/03 04:56:34;;;;;;;5.53;4.27;;;7.60;99.90;;;;;;5065184;28;20206;-31
2023/01/03 04:59:04;;;;;;;7.20;3.83;;;7.60;99.90;;;;;;5065457;28;20235;-31
2023/01/03 05:01:32;;;;;;;6.57;3.83;;;7.60;99.90;;;;;;5063017;28;20602;-31
2023/01/03 05:04:00;;;;;;;7.13;4.20;;;7.60;99.90;;;;;;5064109;28;20207;-31
2023/01/03 05:06:28;;;;;;;5.07;4.20;;;7.70;99.90;;;;;;5064401;28;20214;-31
2023/01/03 05:08:55;;;;;;;6.17;4.40;;;7.70;99.90;;;;;;5061312;28;20239;-31
2023/01/03 05:11:23;;;;;;;8.43;5.13;;;7.70;99.90;;;;;;5064197;28;20705;-31
2023/01/03 05:13:50;;;;;;;6.97;4.97;;;7.70;99.90;;;;;;5077514;28;20700;-31
2023/01/03 05:16:17;;;;;;;6.77;4.97;;;7.70;99.90;;;;;;5063121;28;20195;-31
2023/01/03 05:18:45;;;;;;;7.97;5.50;;;7.70;99.90;;;;;;5063223;28;20299;-31
2023/01/03 05:26:53;;;;;;;8.23;6.17;;;7.80;99.90;;;;;;5063435;28;20211;-30
2023/01/03 05:29:22;;;;;;;10.37;6.87;;;7.90;99.90;;;;;;5061813;28;20227;-30
2023/01/03 05:31:52;;;;;;;9.10;6.80;;;7.90;99.90;;;;;;5061719;28;20590;-30
2023/01/03 05:34:19;;;;;;;10.30;7.33;;;7.90;99.90;;;;;;5069704;28;20298;-30
2023/01/03 05:36:49;;;;;;;10.83;7.20;;;8.00;99.90;;;;;;5072786;28;20220;-30
2023/01/03 05:39:18;;;;;;;11.87;8.13;;;8.00;99.90;;;;;;5061259;28;20195;-30
2023/01/03 05:41:59;;;;;;;11.63;8.83;;;8.00;99.90;;;;;;5063734;28;20219;-30
2023/01/03 05:44:34;;;;;;;11.60;9.07;;;8.00;99.90;;;;;;5056929;28;20270;-32
2023/01/03 05:47:07;;;;;;;13.00;9.60;;;8.10;99.90;;;;;;5065561;28;20212;-31
2023/01/03 05:49:36;;;;;;;13.57;9.53;;;8.10;99.90;;;;;;5065306;28;20341;-32
2023/01/03 05:52:05;;;;;;;15.27;10.87;;;8.10;99.90;;;;;;5081140;28;20264;-32
2023/01/03 05:54:34;;;;;;;14.13;10.27;;;8.10;99.90;;;;;;5078301;28;20276;-32
2023/01/03 05:57:02;;;;;;;13.67;10.37;;;8.10;99.90;;;;;;5075475;28;20302;-32
2023/01/03 05:59:29;;;;;;;15.37;10.60;;;8.10;99.90;;;;;;5061129;28;20289;-32
2023/01/03 06:01:58;;;;;;;16.27;10.23;;;8.20;99.90;;;;;;5067593;28;20727;-32
2023/01/03 06:04:31;;;;;;;13.20;10.43;;;8.20;99.90;;;;;;5068450;28;20296;-32
2023/01/03 06:07:00;;;;;;;16.00;10.80;;;8.20;99.90;;;;;;5073096;28;20293;-31
2023/01/03 06:09:30;;;;;;;12.53;9.57;;;8.30;99.90;;;;;;5074569;28;20222;-32
2023/01/03 06:12:00;;;;;;;15.87;11.53;;;8.30;99.90;;;;;;5075852;28;20203;-31
2023/01/03 06:14:29;;;;;;;14.93;10.60;;;8.40;99.90;;;;;;5061048;28;20602;-32
2023/01/03 06:19:42;;;;;;;15.53;11.30;;;8.40;99.90;;;;;;5059419;28;20196;-31
2023/01/03 06:22:11;;;;;;;12.73;9.67;;;8.40;99.90;;;;;;5054119;28;20681;-31
2023/01/03 06:24:39;;;;;;;16.60;10.40;;;8.50;99.90;;;;;;5070872;28;20318;-32
2023/01/03 06:27:06;;;;;;;14.53;10.37;;;8.50;99.90;;;;;;5071523;28;20284;-31
2023/01/03 06:29:35;;;;;;;13.87;10.53;;;8.50;99.90;;;;;;5064383;28;20761;-31
2023/01/03 06:32:03;;;;;;;13.73;9.80;;;8.60;99.90;;;;;;5074858;28;20810;-31
2023/01/03 06:34:40;;;;;;;15.50;10.77;;;8.60;99.90;;;;;;5056968;28;20279;-31
2023/01/03 06:37:07;;;;;;;13.23;10.07;;;8.60;99.90;;;;;;5063297;28;20248;-31
2023/01/03 06:39:39;;;;;;;13.67;10.30;;;8.60;99.90;;;;;;5071614;28;20214;-32
2023/01/03 06:53:23;;;;;;;12.30;10.00;;;8.70;99.90;;;;;;5063322;28;20204;-31
2023/01/03 06:55:52;;;;;;;13.47;9.20;;;8.80;99.90;;;;;;5065825;28;20199;-31
2023/01/03 06:58:23;;;;;;;12.87;9.33;;;8.80;99.90;;;;;;5065670;28;20200;-31
2023/01/03 07:00:53;;;;;;;12.03;9.77;;;8.70;99.90;;;;;;5065655;28;20246;-31
2023/01/03 07:03:26;;;;;;;12.53;9.37;;;8.80;99.90;;;;;;5061155;28;20206;-31
2023/01/03 07:05:53;;;;;;;11.57;8.67;;;8.80;99.90;;;;;;5066083;28;20243;-31
2023/01/03 07:08:20;;;;;;;9.90;8.27;;;8.70;99.90;;;;;;5066017;28;20204;-31
2023/01/03 07:10:50;;;;;;;12.07;8.27;;;8.70;99.90;;;;;;5060649;28;20239;-31
2023/01/03 07:16:15;;;;;;;11.10;7.33;;;8.70;99.90;;;;;;5065279;28;20249;-31
2023/01/03 07:18:45;;;;;;;12.80;8.00;;;8.70;99.90;;;;;;5060751;28;20211;-31
2023/01/03 07:21:26;;;;;;;9.17;6.83;;;8.70;99.90;;;;;;5064032;28;20199;-31
2023/01/03 07:23:55;;;;;;;10.67;7.13;;;8.70;99.90;;;;;;5066280;28;20294;-31
2023/01/03 07:26:23;;;;;;;10.83;6.90;;;8.80;99.90;;;;;;5063905;28;20196;-31
2023/01/03 07:28:51;;;;;;;8.50;6.43;;;8.80;99.90;;;;;;5048629;28;20212;-31
2023/01/03 07:31:21;;;;;;;10.47;6.67;;;8.80;99.90;;;;;;5075449;28;20422;-31
2023/01/03 07:33:49;;;;;;;9.40;6.43;;;8.80;99.90;;;;;;5059850;28;20215;-31
2023/01/03 07:36:16;;;;;;;9.20;6.03;;;8.90;99.90;;;;;;5061806;28;20629;-31
2023/01/03 07:38:44;;;;;;;6.63;5.83;;;8.90;99.90;;;;;;5062803;28;20314;-31
2023/01/03 07:41:14;;;;;;;8.10;5.60;;;9.00;99.90;;;;;;5065535;28;20471;-31
2023/01/03 07:43:46;;;;;;;8.63;5.53;;;9.00;99.90;;;;;;5065081;28;20224;-31
2023/01/03 07:46:29;;;;;;;8.33;5.90;;;9.00;99.90;;;;;;5055555;28;20438;-31
2023/01/03 07:49:01;;;;;;;7.87;5.27;;;9.10;99.90;;;;;;5064894;28;20480;-31
2023/01/03 07:51:39;;;;;;;6.93;4.97;;;9.00;99.90;;;;;;5064780;28;20322;-31
2023/01/03 07:54:11;;;;;;;8.93;5.70;;;9.10;99.90;;;;;;5055067;28;20200;-31
2023/01/03 07:56:38;;;;;;;9.37;5.23;;;9.10;99.90;;;;;;5052940;28;20207;-31
2023/01/03 07:59:08;;;;;;;7.87;5.70;;;9.20;99.90;;;;;;5060050;28;20205;-31
2023/01/03 08:01:35;;;;;;;7.20;4.90;;;9.20;99.90;;;;;;5064825;28;20207;-31
2023/01/03 08:04:05;;;;;;;7.00;4.90;;;9.30;99.90;;;;;;5062665;28;20285;-31
2023/01/03 08:06:32;;;;;;;7.30;5.50;;;9.30;99.90;;;;;;5065821;28;20756;-31
2023/01/03 08:14:37;;;;;;;8.13;4.53;;;9.40;99.90;;;;;;5063347;28;20215;-30
2023/01/03 08:17:07;;;;;;;6.23;4.73;;;9.40;99.90;;;;;;5063048;28;20224;-30
2023/01/03 08:19:34;;;;;;;7.00;4.43;;;9.50;99.90;;;;;;5063814;28;20239;-33
2023/01/03 08:22:11;;;;;;;6.43;4.80;;;9.50;99.90;;;;;;5064732;28;20281;-32
2023/01/03 08:24:39;;;;;;;5.80;4.20;;;9.50;99.90;;;;;;5064070;28;20749;-32
2023/01/03 08:27:06;;;;;;;8.43;4.97;;;9.60;99.90;;;;;;5065489;28;20223;-32
2023/01/03 08:29:38;;;;;;;8.20;4.80;;;9.60;99.90;;;;;;5062323;28;20593;-32
2023/01/03 08:32:08;;;;;;;6.13;4.07;;;9.60;99.90;;;;;;5064267;28;20219;-32
2023/01/03 08:34:37;;;;;;;8.07;4.40;;;9.70;99.90;;;;;;5063384;28;20284;-32
2023/01/03 08:37:10;;;;;;;6.13;4.43;;;9.70;99.90;;;;;;5062584;28;20242;-32
2023/01/03 08:39:48;;;;;;;8.30;4.63;;;9.70;99.90;;;;;;5064651;28;20204;-33
2023/01/03 08:42:16;;;;;;;6.00;4.57;;;9.70;99.90;;;;;;5064060;28;20230;-32
2023/01/03 08:44:46;;;;;;;9.20;4.10;;;9.80;99.90;;;;;;5054453;28;20235;-32
2023/01/03 08:47:15;;;;;;;8.17;4.30;;;9.80;99.90;;;;;;5061192;28;20652;-33
2023/01/03 08:49:42;;;;;;;5.73;4.30;;;9.90;99.90;;;;;;5063960;28;20322;-32
2023/01/03 08:52:09;;;;;;;6.40;4.50;;;9.90;99.90;;;;;;5047888;28;20806;-32
2023/01/03 08:54:42;;;;;;;7.47;4.60;;;9.90;99.90;;;;;;5064353;28;20216;-31
2023/01/03 08:57:10;;;;;;;8.80;4.20;;;10.00;99.90;;;;;;5054139;28;20684;-33
2023/01/03 08:59:37;;;;;;;6.73;4.23;;;10.00;99.90;;;;;;5046716;28;20215;-31
2023/01/03 09:02:04;;;;;;;6.77;4.00;;;10.00;99.90;;;;;;5059712;28;20199;-32
2023/01/03 09:04:34;;;;;;;8.93;4.77;;;10.00;99.90;;;;;;5053832;28;20699;-32
2023/01/03 09:07:02;;;;;;;6.77;4.70;;;10.10;99.90;;;;;;5062508;28;20207;-32
2023/01/03 09:09:29;;;;;;;9.57;4.73;;;10.10;99.90;;;;;;5061482;28;20200;-32
2023/01/03 09:11:56;;;;;;;7.50;3.93;;;10.10;99.90;;;;;;5063229;28;20207;-32
2023/01/03 09:14:24;;;;;;;7.40;4.67;;;10.20;99.90;;;;;;5048185;28;20212;-32
2023/01/03 09:16:53;;;;;;;8.30;4.37;;;10.20;99.90;;;;;;5058474;28;20207;-33
2023/01/03 09:19:21;;;;;;;7.00;4.30;;;10.20;99.90;;;;;;5065429;28;20553;-31
2023/01/03 09:21:56;;;;;;;9.03;4.37;;;10.20;99.90;;;;;;5064912;28;20680;-32
2023/01/03 09:24:23;;;;;;;7.07;4.50;;;10.30;99.90;;;;;;5063305;28;20215;-32
2023/01/03 09:26:50;;;;;;;11.50;4.73;;;10.30;99.90;;;;;;5064119;28;20203;-32
2023/01/03 09:29:21;;;;;;;5.83;4.37;;;10.30;99.90;;;;;;5052655;28;20682;-32
2023/01/03 09:31:48;;;;;;;8.37;4.13;;;10.30;99.90;;;;;;5052946;28;20223;-33
2023/01/03 09:34:18;;;;;;;8.80;4.27;;;10.30;99.90;;;;;;5060954;28;20840;-32
2023/01/03 09:36:45;;;;;;;9.57;4.83;;;10.40;99.90;;;;;;5059540;28;20815;-33
2023/01/03 09:39:17;;;;;;;7.73;4.43;;;10.40;99.90;;;;;;5066236;28;20762;-32
2023/01/03 09:43:11;;;;;;;6.27;4.33;;;10.40;99.90;;;;;;5065536;28;20217;-32
2023/01/03 09:44:40;;;;;;;11.07;4.87;;;10.40;99.90;;;;;;5065165;28;20572;-32
2023/01/03 09:47:20;;;;;;;8.63;4.60;;;10.50;99.90;;;;;;5046392;28;20910;-32
2023/01/03 09:49:48;;;;;;;10.03;5.17;;;10.50;99.90;;;;;;5067956;28;20223;-33
2023/01/03 10:05:12;;;;;;;10.73;4.70;;;10.60;99.90;;;;;;5069487;28;20204;-32
2023/01/03 10:08:23;;;;;;;7.87;5.00;;;10.60;99.90;;;;;;5068273;28;20265;-32
2023/01/03 10:11:10;;;;;;;8.97;5.10;;;10.60;99.90;;;;;;5058173;28;20227;-32
2023/01/03 10:14:11;;;;;;;10.97;5.00;;;10.70;99.90;;;;;;5065039;28;20206;-32
2023/01/03 10:17:04;;;;;;;8.67;4.10;;;10.70;99.90;;;;;;5055648;28;20231;-32
2023/01/03 10:19:49;;;;;;;7.47;4.17;;;10.70;99.90;;;;;;5059459;28;20246;-33
2023/01/03 10:22:26;;;;;;;7.03;4.47;;;10.80;99.90;;;;;;5066608;28;20234;-32
2023/01/03 10:24:57;;;;;;;10.53;4.70;;;10.70;99.90;;;;;;5057811;28;20211;-32
2023/01/03 10:27:34;;;;;;;8.27;4.63;;;10.80;99.90;;;;;;5063092;28;20748;-32
2023/01/03 10:30:14;;;;;;;9.30;4.33;;;10.80;99.90;;;;;;5066890;28;20223;-32
2023/01/03 10:33:01;;;;;;;8.80;4.40;;;10.70;99.90;;;;;;5065748;28;20203;-33
2023/01/03 10:35:35;;;;;;;8.23;4.37;;;10.80;99.90;;;;;;5066948;28;20199;-32
2023/01/03 10:38:05;;;;;;;8.13;4.73;;;10.70;99.90;;;;;;5067965;28;20203;-33
2023/01/03 10:40:45;;;;;;;9.73;5.20;;;10.70;99.90;;;;;;5058574;28;20203;-32
2023/01/03 10:43:28;;;;;;;9.67;5.00;;;10.80;99.90;;;;;;5058973;28;20310;-32
2023/01/03 10:46:01;;;;;;;10.13;4.97;;;10.80;99.90;;;;;;5061362;28;20652;-33
2023/01/03 10:48:40;;;;;;;8.77;5.47;;;10.70;99.90;;;;;;5062221;28;20200;-31
2023/01/03 10:51:40;;;;;;;7.27;4.70;;;10.70;99.90;;;;;;5068622;28;20230;-32
2023/01/03 10:54:28;;;;;;;8.20;4.93;;;10.70;99.90;;;;;;5064484;28;20215;-32
2023/01/03 10:56:56;;;;;;;8.13;5.00;;;10.70;99.90;;;;;;5067566;28;20530;-31
2023/01/03 10:59:31;;;;;;;8.43;4.73;;;10.70;99.90;;;;;;5064109;28;20650;-32
2023/01/03 11:02:07;;;;;;;8.90;5.00;;;10.70;99.90;;;;;;5068805;28;20478;-33
2023/01/03 11:04:36;;;;;;;9.23;4.90;;;10.70;99.90;;;;;;5063703;28;20203;-32
2023/01/03 11:07:12;;;;;;;9.87;4.67;;;10.70;99.90;;;;;;5064533;28;20238;-33
2023/01/03 11:09:53;;;;;;;7.20;4.17;;;10.70;99.90;;;;;;5065439;28;20211;-32
2023/01/03 11:12:39;;;;;;;7.83;4.30;;;10.70;99.90;;;;;;5060354;28;20251;-33
2023/01/03 11:15:31;;;;;;;7.93;4.90;;;10.70;99.90;;;;;;5060973;28;20219;-32
2023/01/03 11:18:19;;;;;;;7.33;4.07;;;10.70;99.90;;;;;;5063141;28;20674;-32
2023/01/03 11:21:14;;;;;;;5.93;4.30;;;10.70;99.90;;;;;;5056947;28;20199;-32
2023/01/03 11:24:07;;;;;;;6.60;4.30;;;10.70;99.90;;;;;;5064033;28;20241;-33
2023/01/03 11:27:10;;;;;;;7.93;3.70;;;10.70;99.90;;;;;;5065162;28;20206;-32
2023/01/03 11:30:11;;;;;;;8.50;4.07;;;10.70;99.90;;;;;;5055853;28;20206;-32
2023/01/03 11:32:57;;;;;;;10.27;4.07;;;10.80;99.90;;;;;;5061162;28;20200;-31
2023/01/03 11:35:52;;;;;;;7.10;3.60;;;10.80;99.90;;;;;;5064134;28;20253;-33
2023/01/03 11:38:49;;;;;;;7.90;4.00;;;10.80;99.90;;;;;;5063169;28;20223;-33
2023/01/03 11:41:35;;;;;;;5.43;3.20;;;10.80;99.90;;;;;;5062234;28;20191;-33
2023/01/03 11:44:23;;;;;;;6.17;3.40;;;10.80;99.90;;;;;;5062136;28;20204;-32
2023/01/03 11:47:03;;;;;;;6.80;3.20;;;10.80;99.90;;;;;;5063184;28;20219;-33
2023/01/03 11:50:02;;;;;;;6.03;3.07;;;10.90;99.90;;;;;;5052764;28;20203;-31
2023/01/03 11:52:48;;;;;;;6.77;3.07;;;10.90;99.90;;;;;;5052734;28;20653;-32
2023/01/03 11:55:50;;;;;;;6.33;2.83;;;11.00;99.90;;;;;;5055857;28;20212;-32
2023/01/03 11:58:19;;;;;;;7.23;2.93;;;11.00;99.90;;;;;;5061207;28;20191;-31
2023/01/03 12:01:02;;;;;;;5.23;2.60;;;11.00;99.90;;;;;;5064090;28;20211;-32
2023/01/03 12:04:12;;;;;;;5.00;2.67;;;11.00;99.90;;;;;;5057036;28;20337;-32
2023/01/03 12:07:02;;;;;;;8.87;4.03;;;11.00;99.90;;;;;;5066421;28;20632;-32
2023/01/03 12:10:09;;;;;;;4.97;2.40;;;11.00;99.90;;;;;;5065051;28;20219;-33
2023/01/03 12:12:57;;;;;;;5.13;2.90;;;11.10;99.90;;;;;;5065378;28;20203;-33
2023/01/03 12:15:36;;;;;;;6.67;2.67;;;11.10;99.90;;;;;;5066369;28;20214;-33
2023/01/03 12:18:15;;;;;;;6.47;2.73;;;11.10;99.90;;;;;;5059925;28;20209;-32
2023/01/03 12:20:57;;;;;;;7.70;2.47;;;11.20;99.90;;;;;;5064759;28;20272;-33
2023/01/03 12:23:33;;;;;;;4.70;2.30;;;11.20;99.90;;;;;;5065475;28;20203;-33
2023/01/03 12:26:07;;;;;;;7.13;2.73;;;11.20;99.90;;;;;;5062912;28;20199;-32
2023/01/03 12:28:40;;;;;;;5.37;2.70;;;11.30;99.90;;;;;;5062053;28;20434;-33
2023/01/03 12:31:25;;;;;;;9.87;3.07;;;11.30;99.90;;;;;;5070711;28;20207;-33
2023/01/03 12:34:39;;;;;;;4.57;2.87;;;11.30;99.90;;;;;;5058617;28;20195;-32
2023/01/03 12:37:23;;;;;;;7.10;2.40;;;11.30;99.90;;;;;;5061291;28;20762;-32
2023/01/03 12:40:24;;;;;;;4.13;2.40;;;11.30;99.90;;;;;;5063682;28;20814;-33
2023/01/03 12:43:17;;;;;;;5.07;2.80;;;11.30;99.90;;;;;;5064176;28;20226;-33
2023/01/03 12:45:54;;;;;;;5.73;2.50;;;11.30;99.90;;;;;;5061367;28;20285;-33
2023/01/03 12:48:28;;;;;;;5.77;2.63;;;11.30;99.90;;;;;;5054528;28;21236;-32
2023/01/03 12:50:55;;;;;;;5.80;2.53;;;11.40;99.90;;;;;;5060212;28;20277;-32
2023/01/03 12:54:04;;;;;;;8.37;2.90;;;11.40;99.90;;;;;;5065176;28;20574;-33
2023/01/03 12:57:00;;;;;;;3.67;2.40;;;11.40;99.90;;;;;;5061451;28;20222;-32
2023/01/03 12:59:57;;;;;;;3.80;2.20;;;11.40;99.90;;;;;;5063455;28;20211;-34
2023/01/03 13:02:49;;;;;;;7.80;2.83;;;11.40;99.90;;;;;;5075568;28;20215;-34
2023/01/03 13:05:36;;;;;;;7.23;2.80;;;11.50;99.90;;;;;;5064110;28;20260;-34
2023/01/03 13:08:15;;;;;;;6.03;2.57;;;11.50;99.90;;;;;;5064723;28;20203;-34
2023/01/03 13:10:47;;;;;;;7.30;2.57;;;11.50;99.90;;;;;;5064184;28;20531;-34
2023/01/03 13:13:17;;;;;;;8.10;2.90;;;11.50;99.90;;;;;;5060700;28;20290;-34
2023/01/03 13:15:46;;;;;;;6.47;2.83;;;11.60;99.90;;;;;;5064029;28;20265;-33
2023/01/03 13:18:29;;;;;;;7.33;2.70;;;11.50;99.90;;;;;;5063089;28;20200;-34
2023/01/03 13:20:57;;;;;;;5.83;2.40;;;11.60;99.90;;;;;;5056871;28;20203;-34
2023/01/03 13:23:33;;;;;;;6.43;2.93;;;11.60;99.90;;;;;;5064382;28;20400;-34
2023/01/03 13:26:04;;;;;;;8.60;2.60;;;11.60;99.90;;;;;;5063043;28;20203;-33
2023/01/03 13:28:34;;;;;;;9.87;3.20;;;11.60;99.90;;;;;;5061620;28;20210;-34
2023/01/03 13:31:13;;;;;;;6.50;2.87;;;11.60;99.90;;;;;;5054412;28;20709;-34
2023/01/03 13:33:57;;;;;;;8.23;2.80;;;11.60;99.90;;;;;;5050572;28;20200;-33
2023/01/03 13:36:24;;;;;;;7.37;2.77;;;11.50;99.90;;;;;;5061252;28;20219;-34
2023/01/03 13:38:51;;;;;;;4.67;2.20;;;11.50;99.90;;;;;;5055685;28;20204;-33
2023/01/03 13:41:35;;;;;;;5.37;2.47;;;11.60;99.90;;;;;;5065123;28;20211;-34
2023/01/03 13:44:08;;;;;;;4.47;2.43;;;11.60;99.90;;;;;;5054950;28;20219;-34
2023/01/03 13:46:39;;;;;;;5.93;2.53;;;11.60;99.90;;;;;;5064462;28;20203;-34
2023/01/03 13:49:16;;;;;;;8.30;2.50;;;11.60;99.90;;;;;;5062338;28;20215;-33
2023/01/03 13:51:43;;;;;;;6.17;2.57;;;11.60;99.90;;;;;;5063269;28;20239;-34
2023/01/03 13:54:11;;;;;;;6.57;2.30;;;11.60;99.90;;;;;;5062086;28;20696;-35
2023/01/03 13:56:44;;;;;;;7.83;2.50;;;11.60;99.90;;;;;;5061566;28;20192;-33
2023/01/03 13:59:14;;;;;;;6.90;2.17;;;11.50;99.90;;;;;;5061291;28;20199;-33
2023/01/03 14:02:06;;;;;;;7.67;2.20;;;11.60;99.90;;;;;;5064100;28;20215;-34
2023/01/03 14:04:59;;;;;;;7.53;2.83;;;11.60;99.90;;;;;;5049764;28;20216;-34
2023/01/03 14:07:38;;;;;;;7.43;2.50;;;11.60;99.90;;;;;;5058779;28;20299;-32
2023/01/03 14:10:17;;;;;;;4.73;2.03;;;11.60;99.90;;;;;;5052443;28;20292;-32
2023/01/03 14:13:13;;;;;;;7.53;2.00;;;11.60;99.90;;;;;;5043306;28;20701;-32
2023/01/03 14:15:45;;;;;;;8.73;2.63;;;11.60;99.90;;;;;;5075528;28;20214;-32
2023/01/03 14:18:25;;;;;;;8.43;2.37;;;11.60;99.90;;;;;;5052811;28;20212;-32
2023/01/03 14:20:59;;;;;;;7.57;2.50;;;11.60;99.90;;;;;;5056790;28;20204;-32
2023/01/03 14:23:27;;;;;;;6.93;2.53;;;11.60;99.90;;;;;;5047421;28;20222;-32
2023/01/03 14:26:17;;;;;;;5.00;2.10;;;11.60;99.90;;;;;;5070086;28;20211;-32
2023/01/03 14:28:50;;;;;;;9.10;2.70;;;11.60;99.90;;;;;;5062332;28;20689;-32
2023/01/03 14:31:20;;;;;;;6.93;2.53;;;11.60;99.90;;;;;;5052253;28;20762;-32
2023/01/03 14:33:55;;;;;;;7.07;3.03;;;11.60;99.90;;;;;;5056165;28;20212;-32
2023/01/03 14:36:25;;;;;;;6.30;2.40;;;11.60;99.90;;;;;;5048217;28;20207;-31
2023/01/03 14:38:52;;;;;;;6.77;2.80;;;11.70;99.90;;;;;;5056029;28;20324;-31